Flight Track Log - Related Links

Times and Time Zones

All times are in EDT time to prevent confusion due to time zone crossing. See the GGN7283 flight status page for this flight to view local times or setup timezone preferences in your user account.

Time Position Orientation Groundspeed Altitude Reporting Facility
EDT Latitude Longitude Course Direction KTS MPH feet Rate Location/Type
Tue 05:22:59 PM 42.8006 -73.8267 269° West 179 206 2,200  Level Boston Center
Tue 05:23:30 PM 42.8000 -73.8606 269° West 193 222 2,900 1,187 Climbing Boston Center
Tue 05:24:30 PM 42.8033 -73.9286 274° West 198 228 4,000 1,087 Climbing Boston Center
Tue 05:25:37 PM 42.8189 -74.0053 285° West 202 232 5,200 1,323 Climbing Boston Center
Tue 05:26:37 PM 42.8283 -74.0878 279° West 197 227 6,800 1,537 Climbing Boston Center
Tue 05:27:38 PM 42.8294 -74.1528 271° West 197 227 8,300 1,488 Climbing Boston Center
Tue 05:28:38 PM 42.8322 -74.2350 273° West 197 227 9,800 1,475 Climbing Boston Center
Tue 05:29:36 PM 42.8333 -74.3031 271° West 197 227 11,200 1,525 Climbing Boston Center
Tue 05:30:36 PM 42.8361 -74.3825 273° West 197 227 12,800 1,537 Climbing Boston Center
Tue 05:31:37 PM 42.8392 -74.4478 274° West 197 227 14,300 1,475 Climbing Boston Center
Tue 05:32:38 PM 42.8419 -74.5269 273° West 197 227 15,800 1,412 Climbing Boston Center
Tue 05:33:36 PM 42.8467 -74.5981 275° West 202 232 17,100 1,220 Climbing Boston Center
Tue 05:34:36 PM 42.8514 -74.6831 274° West 207 238 18,200 1,091 Climbing Boston Center
Tue 05:35:37 PM 42.8517 -74.7681 270° West 218 251 19,300 807 Climbing Boston Center
Tue 05:36:35 PM 42.8547 -74.8333 274° West 218 251 19,800 353 Climbing Boston Center
Tue 05:37:36 PM 42.8586 -74.9356 273° West 225 259 20,000 49 Climbing Boston Center
Tue 05:38:37 PM 42.8628 -75.0319 273° West 245 282 19,900 -50 Descending Boston Center
Tue 05:39:37 PM 42.8647 -75.1256 272° West 256 295 19,900  Level Boston Center
Tue 05:40:38 PM 42.8686 -75.2222 273° West 256 295 19,900  Level Boston Center
Tue 05:41:36 PM 42.8725 -75.3186 273° West 256 295 19,900  Level Boston Center
Tue 05:42:38 PM 42.8764 -75.4153 273° West 256 295 19,900  Level Boston Center
Tue 05:43:36 PM 42.8781 -75.5089 271° West 256 295 19,900  Level Boston Center
Tue 05:44:36 PM 42.8794 -75.6081 271° West 256 295 19,900  Level Boston Center
Tue 05:45:37 PM 42.8831 -75.7017 273° West 251 289 19,900  Level Boston Center
Tue 05:46:38 PM 42.8844 -75.7983 271° West 256 295 19,900  Level Boston Center
Tue 05:47:38 PM 42.8897 -75.8978 274° West 256 295 19,900  Level Boston Center
Tue 05:48:36 PM 42.8892 -75.9856 270° West 251 289 19,900  Level Boston Center
Tue 05:49:36 PM 42.8942 -76.0881 274° West 256 295 19,900  Level Boston Center
Tue 05:50:37 PM 42.8953 -76.1844 271° West 256 295 19,900  Level Boston Center
Tue 05:52:37 PM 42.8833 -76.3500 264° West 270 311 19,900 34 Level Toronto Center
Tue 05:53:32 PM 42.8833 -76.4500 270° West 240 276 20,000  Climbing Toronto Center
Tue 05:54:32 PM 42.8833 -76.5333 270° West 250 288 19,900 -50 Descending Toronto Center
Tue 05:55:32 PM 42.8833 -76.6500 270° West 260 299 19,900  Level Toronto Center
Tue 05:56:32 PM 42.9000 -76.7500 283° West 260 299 19,900  Level Toronto Center
Tue 05:57:32 PM 42.9000 -76.8333 270° West 260 299 19,900  Level Toronto Center
Tue 05:58:32 PM 42.9000 -76.9500 270° West 260 299 19,900  Level Toronto Center
Tue 05:59:32 PM 42.9000 -77.0333 270° West 260 299 19,900  Level Toronto Center
Tue 06:00:32 PM 42.9000 -77.1333 270° West 260 299 19,900 50 Level Toronto Center
Tue 06:01:32 PM 42.9000 -77.2167 270° West 260 299 20,000  Climbing Toronto Center
Tue 06:02:32 PM 42.9000 -77.3333 270° West 260 299 19,900 -50 Descending Toronto Center
Tue 06:03:32 PM 42.9167 -77.4333 283° West 260 299 19,900  Level Toronto Center
Tue 06:04:32 PM 42.9167 -77.5333 270° West 260 299 19,900 50 Level Toronto Center
Tue 06:05:32 PM 42.9167 -77.6333 270° West 260 299 20,000  Climbing Toronto Center
Tue 06:06:52 PM 42.9428 -77.7669 285° West 257 296 19,900  Descending Cleveland Center
Tue 06:07:52 PM 42.9658 -77.8567 289° West 252 290 20,000 -450 Climbing Cleveland Center
Tue 06:08:52 PM 42.9889 -77.9492 289° West 257 296 19,000 -1,100 Descending Cleveland Center
Tue 06:09:52 PM 43.0142 -78.0561 288° West 263 303 17,800 -1,190 Descending Cleveland Center
Tue 06:10:53 PM 43.0350 -78.1519 287° West 263 303 16,600 -1,289 Descending Cleveland Center
Tue 06:11:53 PM 43.0578 -78.2561 287° West 269 310 15,200 -1,210 Descending Cleveland Center
Tue 06:12:52 PM 43.0786 -78.3575 286° West 274 315 14,200 -1,050 Descending Cleveland Center
Tue 06:13:53 PM 43.1014 -78.4564 288° West 274 315 13,100 -1,041 Descending Cleveland Center
Tue 06:14:53 PM 43.1239 -78.5522 288° West 274 315 12,100 -970 Descending Cleveland Center
Tue 06:15:32 PM 43.1333 -78.5833 293° West 270 311 11,500 -667 Descending Toronto Center
Tue 06:16:32 PM 43.1500 -78.7000 281° West 270 311 11,000 -300 Descending Toronto Center
Tue 06:17:32 PM 43.1667 -78.7833 285° West 260 299 10,900 -50 Descending Toronto Center
Tue 06:18:32 PM 43.1833 -78.8833 283° West 250 288 10,900  Level Toronto Center
Tue 06:19:32 PM 43.2167 -78.9667 299° West 250 288 10,900  Level Toronto Center
Tue 06:20:32 PM 43.2333 -79.0667 283° West 250 288 10,900  Level Toronto Center
Tue 06:21:32 PM 43.2500 -79.1500 285° West 250 288 10,900 -450 Level Toronto Center
Tue 06:22:32 PM 43.2667 -79.2500 283° West 260 299 10,000 -950 Descending Toronto Center
Tue 06:23:32 PM 43.3000 -79.3333 299° West 260 299 9,000 -500 Descending Toronto Center
Tue 06:24:32 PM 43.3667 -79.3833 331° Northwest 260 299 9,000  Level Toronto Center
Tue 06:25:32 PM 43.4167 -79.4333 324° Northwest 260 299 9,000 -150 Level Toronto Center
Tue 06:26:32 PM 43.4833 -79.4667 340° North 250 288 8,700 -600 Descending Toronto Center
Tue 06:27:32 PM 43.5500 -79.5000 340° North 260 299 7,800 -1,000 Descending Toronto Center
Tue 06:28:32 PM 43.6167 -79.4667 20° North 260 299 6,700 -1,050 Descending Toronto Center
Tue 06:29:32 PM 43.6667 -79.4000 44° Northeast 250 288 5,700 -950 Descending Toronto Center
Tue 06:30:32 PM 43.7167 -79.3500 36° Northeast 240 276 4,800 -850 Descending Toronto Center
Tue 06:31:32 PM 43.7500 -79.2833 55° Northeast 230 265 4,000 -750 Descending Toronto Center
Tue 06:32:32 PM 43.8167 -79.2833 360° North 220 253 3,300 -550 Descending Toronto Center
Tue 06:33:32 PM 43.8167 -79.3500 270° West 190 219 2,900 -200 Descending Toronto Center
Tue 06:34:32 PM 43.7833 -79.4333 241° Southwest 190 219 2,900 -100 Level Toronto Center
Tue 06:35:32 PM 43.7500 -79.4667 216° Southwest 170 196 2,700 -600 Descending Toronto Center
Tue 06:36:32 PM 43.7167 -79.5167 227° Southwest 170 196 1,700 -850 Descending Toronto Center
Tue 06:37:32 PM 43.6833 -79.5667 227° Southwest 140 161 1,000 -600 Descending Toronto Center
Tue 06:38:32 PM 43.6667 -79.5833 216° Southwest 120 138 500 -500 Descending Toronto Center

Login

Don't have an account? Register now (free) for customized features, flight alerts, and more!